createdAt,value
2023-05-21T00:02:44.994Z,11.5219
2023-05-21T00:03:46.536Z,11.4768
2023-05-21T00:10:51.414Z,11.3381
2023-05-21T00:11:51.875Z,11.3227
2023-05-21T00:13:52.416Z,11.3461
2023-05-21T00:14:53.316Z,11.3407
2023-05-21T00:15:54.364Z,11.2970
2023-05-21T00:16:54.949Z,11.1731
2023-05-21T00:17:56.863Z,10.9571
2023-05-21T00:18:58.087Z,10.8901
2023-05-21T00:19:58.509Z,11.0968
2023-05-21T00:20:58.836Z,11.3892
2023-05-21T00:22:00.032Z,11.3494
2023-05-21T00:25:00.737Z,11.6649
2023-05-21T00:26:01.637Z,11.6010
2023-05-21T00:27:03.130Z,11.5613
2023-05-21T00:28:03.843Z,11.5105
2023-05-21T00:30:04.736Z,11.3647
2023-05-21T00:31:05.712Z,11.3303
2023-05-21T00:32:06.167Z,11.2956
2023-05-21T00:33:06.218Z,11.2475
2023-05-21T00:34:07.821Z,11.3114
2023-05-21T00:35:08.754Z,11.3643
2023-05-21T00:40:12.539Z,11.7959
2023-05-21T00:41:13.461Z,11.7715
2023-05-21T00:42:13.993Z,11.4775
2023-05-21T00:43:15.648Z,11.4478
2023-05-21T00:44:15.895Z,11.4483
2023-05-21T00:45:16.442Z,11.3236
2023-05-21T00:46:17.272Z,11.3598
2023-05-21T00:54:24.241Z,11.5269
2023-05-21T00:55:24.756Z,11.7197
2023-05-21T00:56:24.772Z,11.6283
2023-05-21T00:57:26.608Z,11.2385
2023-05-21T00:58:27.339Z,11.2305
2023-05-21T00:59:27.866Z,11.3589
2023-05-21T01:00:29.596Z,11.4759
2023-05-21T01:02:29.113Z,11.3668
2023-05-21T01:03:30.124Z,11.4580
2023-05-21T01:05:31.731Z,11.6720
2023-05-21T01:06:32.612Z,11.7207
2023-05-21T01:13:35.775Z,11.8524
2023-05-21T01:14:35.887Z,11.8118
2023-05-21T01:15:36.417Z,11.8034
2023-05-21T01:16:37.394Z,11.8022
2023-05-21T01:17:38.018Z,11.7769
2023-05-21T01:18:38.585Z,11.7845
2023-05-21T01:19:39.504Z,11.8089
2023-05-21T01:20:40.557Z,11.8369
2023-05-21T01:21:41.334Z,11.8229
2023-05-21T01:22:41.409Z,11.7844
2023-05-21T01:23:42.299Z,11.7985
2023-05-21T01:25:45.531Z,11.7507
2023-05-21T01:26:46.398Z,11.7383
2023-05-21T01:27:47.273Z,11.7833
2023-05-21T01:28:48.097Z,11.8140
2023-05-21T01:29:48.413Z,11.7646
2023-05-21T01:31:51.187Z,11.7869
2023-05-21T01:33:51.309Z,11.7500
2023-05-21T01:34:51.557Z,11.7640
2023-05-21T01:35:53.525Z,11.8051
2023-05-21T01:36:55.376Z,11.7855
2023-05-21T01:39:57.453Z,11.7250
2023-05-21T01:50:05.805Z,11.6644
2023-05-21T01:53:08.262Z,11.6135
2023-05-21T01:55:08.034Z,11.6594
2023-05-21T01:56:08.798Z,11.6871
2023-05-21T01:58:10.108Z,11.6568
2023-05-21T02:01:13.713Z,11.4996
2023-05-21T02:10:18.970Z,11.2407
2023-05-21T02:11:21.137Z,11.3740
2023-05-21T02:12:23.014Z,11.5077
2023-05-21T02:13:26.050Z,11.5508
2023-05-21T02:14:24.170Z,11.4763
2023-05-21T02:17:25.411Z,11.4479
2023-05-21T02:18:26.384Z,11.3927
2023-05-21T02:23:29.418Z,11.3329
2023-05-21T02:24:29.487Z,11.4149
2023-05-21T02:25:30.732Z,11.4649
2023-05-21T02:26:31.497Z,11.4606
2023-05-21T02:27:31.919Z,11.7156
2023-05-21T02:28:32.885Z,11.7229
2023-05-21T02:29:34.321Z,11.6192
2023-05-21T02:30:35.633Z,11.4993
2023-05-21T02:31:36.138Z,11.4557
2023-05-21T02:32:37.821Z,11.4374
2023-05-21T02:43:43.284Z,11.5338
2023-05-21T02:44:43.870Z,11.5170
2023-05-21T02:45:43.969Z,11.4753
2023-05-21T02:46:44.152Z,11.3503
2023-05-21T02:47:44.655Z,11.3277
2023-05-21T02:48:45.021Z,11.5003
2023-05-21T02:49:46.585Z,11.4605
2023-05-21T02:50:47.860Z,11.4375
2023-05-21T02:51:49.709Z,11.2380
2023-05-21T02:52:49.986Z,11.0975
2023-05-21T02:53:49.996Z,11.1608
2023-05-21T02:54:50.835Z,11.0878
2023-05-21T02:55:51.029Z,11.1549
2023-05-21T02:56:52.024Z,11.1969
2023-05-21T02:57:52.768Z,11.2004
2023-05-21T02:58:52.884Z,11.1518
2023-05-21T02:59:53.873Z,11.0972
2023-05-21T03:00:54.060Z,10.9359
2023-05-21T03:05:56.530Z,11.3399
2023-05-21T03:06:57.767Z,11.1983
2023-05-21T03:07:58.608Z,11.1876
2023-05-21T03:09:00.600Z,11.3371
2023-05-21T03:10:01.139Z,11.3438
2023-05-21T03:11:01.489Z,11.2501
2023-05-21T03:12:02.345Z,11.1179
2023-05-21T03:13:03.263Z,11.2401
2023-05-21T03:14:03.678Z,11.3228
2023-05-21T03:19:36.098Z,11.0304
2023-05-21T03:20:36.312Z,10.9222
2023-05-21T03:21:37.982Z,10.8398
2023-05-21T03:23:38.687Z,10.5257
2023-05-21T03:24:39.683Z,10.4306
2023-05-21T03:26:40.279Z,10.3581
2023-05-21T03:27:41.053Z,10.4894
2023-05-21T03:29:42.624Z,10.3335
2023-05-21T03:41:51.212Z,9.3160
2023-05-21T03:42:52.219Z,9.4324
2023-05-21T03:44:52.879Z,10.1164
2023-05-21T03:45:53.446Z,9.7714
2023-05-21T03:46:54.815Z,9.5514
2023-05-21T03:48:56.010Z,9.4609
2023-05-21T03:49:56.703Z,9.3638
2023-05-21T03:50:56.820Z,9.6558
2023-05-21T03:51:58.374Z,9.8215
2023-05-21T03:53:58.313Z,9.0924
2023-05-21T03:54:58.513Z,8.9878
2023-05-21T03:55:58.775Z,9.2225
2023-05-21T03:57:00.003Z,9.4614
2023-05-21T03:58:00.499Z,9.3275
2023-05-21T03:59:01.309Z,9.2739
2023-05-21T04:00:02.944Z,9.0936
2023-05-21T04:01:04.124Z,9.1115
2023-05-21T04:02:04.966Z,9.3730
2023-05-21T04:03:06.428Z,9.8152
2023-05-21T04:04:07.372Z,9.6759
2023-05-21T04:05:06.619Z,9.8620
2023-05-21T04:06:08.529Z,10.4028
2023-05-21T04:07:10.049Z,10.4602
2023-05-21T04:08:10.593Z,10.4491
2023-05-21T04:09:11.359Z,10.0854
2023-05-21T04:14:14.417Z,10.8641
2023-05-21T04:17:15.086Z,10.6965
2023-05-21T04:18:16.287Z,10.8297
2023-05-21T04:20:16.291Z,10.7782
2023-05-21T04:21:17.260Z,10.7203
2023-05-21T04:23:18.020Z,11.0047
2023-05-21T04:24:18.387Z,10.8649
2023-05-21T04:25:18.601Z,10.6854
2023-05-21T04:26:20.733Z,10.4850
2023-05-21T04:29:24.478Z,10.5911
2023-05-21T04:30:25.901Z,10.6060
2023-05-21T04:35:28.356Z,11.1257
2023-05-21T04:37:29.850Z,11.3522
2023-05-21T04:38:30.215Z,11.3946
2023-05-21T04:43:34.316Z,11.2626
2023-05-21T04:45:33.868Z,11.3963
2023-05-21T04:46:35.424Z,11.5301
2023-05-21T04:47:36.271Z,11.5374
2023-05-21T04:56:40.458Z,11.7885
2023-05-21T04:57:41.653Z,11.8085
2023-05-21T04:58:42.277Z,11.8811
2023-05-21T04:59:42.849Z,11.9024
2023-05-21T05:00:43.988Z,11.9588
2023-05-21T05:01:44.436Z,11.9874
2023-05-21T05:03:45.817Z,12.0987
2023-05-21T05:04:46.274Z,12.1974
2023-05-21T05:05:47.042Z,12.2349
2023-05-21T05:07:49.445Z,12.3268
2023-05-21T05:09:49.996Z,12.4949
2023-05-21T05:10:50.765Z,12.5242
2023-05-21T05:11:50.948Z,12.5350
2023-05-21T05:12:52.079Z,12.5386
2023-05-21T05:19:56.326Z,12.2910
2023-05-21T05:20:58.318Z,12.3140
2023-05-21T05:21:59.272Z,12.4533
2023-05-21T05:22:59.750Z,12.5992
2023-05-21T05:24:01.049Z,12.5379
2023-05-21T05:25:01.751Z,12.5168
2023-05-21T05:27:02.044Z,12.5344
2023-05-21T05:28:03.739Z,12.5153
2023-05-21T05:30:04.256Z,12.5916
2023-05-21T05:31:05.116Z,12.6340
2023-05-21T05:32:06.210Z,12.7575
2023-05-21T05:33:08.317Z,12.7923
2023-05-21T05:34:08.511Z,12.8786
2023-05-21T05:35:08.779Z,12.8834
2023-05-21T05:36:09.373Z,12.8631
2023-05-21T05:37:11.006Z,12.9676
2023-05-21T05:40:13.447Z,13.3142
2023-05-21T05:41:14.101Z,13.2455
2023-05-21T05:42:15.328Z,13.1948
2023-05-21T05:43:16.849Z,13.1645
2023-05-21T05:48:20.907Z,12.8837
2023-05-21T05:49:22.222Z,12.9413
2023-05-21T05:50:22.489Z,13.1180
2023-05-21T05:51:23.181Z,13.1137
2023-05-21T05:52:23.493Z,13.1971
2023-05-21T05:53:24.682Z,13.3751
2023-05-21T05:54:25.135Z,13.4253
2023-05-21T05:55:25.273Z,13.5070
2023-05-21T05:56:25.807Z,13.4309
2023-05-21T05:57:26.067Z,13.2459
2023-05-21T05:58:27.247Z,13.2329
2023-05-21T05:59:27.508Z,13.1100
2023-05-21T06:00:28.841Z,13.2495
2023-05-21T06:01:29.832Z,13.4459
2023-05-21T06:02:30.303Z,13.6576
2023-05-21T06:03:30.539Z,13.6773
2023-05-21T06:07:33.346Z,13.8887
2023-05-21T06:08:36.640Z,13.6757
2023-05-21T06:09:34.796Z,13.6194
2023-05-21T06:10:35.706Z,13.5946
2023-05-21T06:11:35.751Z,13.4377
2023-05-21T06:12:36.891Z,13.5503
2023-05-21T06:13:38.552Z,13.6253
2023-05-21T06:14:38.745Z,13.6719
2023-05-21T06:16:42.403Z,13.7698
2023-05-21T06:21:43.878Z,13.9069
2023-05-21T06:22:43.981Z,13.9120
2023-05-21T06:27:47.508Z,14.8142
2023-05-21T06:28:48.757Z,15.3093
2023-05-21T06:29:48.962Z,15.5943
2023-05-21T06:30:50.488Z,15.6374
2023-05-21T06:31:52.211Z,15.4900
2023-05-21T06:32:52.855Z,15.6368
2023-05-21T06:33:53.496Z,15.5369
2023-05-21T06:34:54.909Z,16.2512
2023-05-21T06:37:57.198Z,15.3627
2023-05-21T06:38:57.301Z,15.4265
2023-05-21T06:39:57.400Z,15.5586
2023-05-21T06:40:58.527Z,15.7671
2023-05-21T06:41:58.680Z,15.8555
2023-05-21T06:43:00.107Z,15.8453
2023-05-21T06:44:01.041Z,15.6131
2023-05-21T06:49:05.261Z,16.1549
2023-05-21T06:51:04.983Z,16.7728
2023-05-21T06:52:06.014Z,16.3918
2023-05-21T06:53:06.882Z,16.4167
2023-05-21T06:54:08.030Z,16.3264
2023-05-21T06:55:08.662Z,16.0914
2023-05-21T06:56:09.245Z,16.3240
2023-05-21T06:57:10.609Z,15.9102
2023-05-21T06:58:12.443Z,16.0937
2023-05-21T07:00:13.839Z,16.1593
2023-05-21T07:01:14.899Z,16.1145
2023-05-21T07:09:19.379Z,15.8387
2023-05-21T07:10:20.188Z,15.7834
2023-05-21T07:11:21.269Z,16.0144
2023-05-21T07:12:22.095Z,16.2132
2023-05-21T07:13:22.728Z,16.2477
2023-05-21T07:15:23.199Z,16.5128
2023-05-21T07:16:23.841Z,16.8961
2023-05-21T07:17:24.117Z,17.2502
2023-05-21T07:18:25.551Z,17.4909
2023-05-21T07:19:26.311Z,17.7959
2023-05-21T07:20:27.422Z,16.9605
2023-05-21T07:21:28.576Z,16.6793
2023-05-21T07:22:30.249Z,16.5686
2023-05-21T07:23:30.384Z,16.7795
2023-05-21T07:24:31.501Z,17.1627
2023-05-21T07:27:33.521Z,17.4946
2023-05-21T07:28:33.903Z,16.9857
2023-05-21T07:29:34.984Z,16.6790
2023-05-21T07:30:35.880Z,16.6202
2023-05-21T07:31:35.982Z,16.7390
2023-05-21T07:32:36.263Z,17.2205
2023-05-21T07:33:37.352Z,17.7511
2023-05-21T07:34:38.254Z,17.7762
2023-05-21T07:35:38.656Z,18.3394
2023-05-21T07:36:40.482Z,18.0455
2023-05-21T07:37:42.076Z,18.1667
2023-05-21T07:38:42.544Z,17.6385
2023-05-21T07:39:43.506Z,17.7165
2023-05-21T07:40:43.941Z,18.0723
2023-05-21T07:41:44.669Z,17.8653
2023-05-21T07:42:44.708Z,18.7848
2023-05-21T07:45:44.793Z,17.9157
2023-05-21T07:46:44.974Z,17.6211
2023-05-21T07:47:45.333Z,17.9147
2023-05-21T07:48:46.175Z,18.8897
2023-05-21T07:50:48.823Z,18.7391
2023-05-21T07:51:49.700Z,17.8177
2023-05-21T07:56:53.401Z,18.5249
2023-05-21T07:57:53.780Z,18.4212
2023-05-21T07:59:55.535Z,18.1361
2023-05-21T08:00:55.997Z,18.5473
2023-05-21T08:01:56.828Z,18.3737
2023-05-21T08:02:58.351Z,18.4114
2023-05-21T08:04:59.730Z,17.8440
2023-05-21T08:05:59.975Z,17.8700
2023-05-21T08:07:00.697Z,18.2588
2023-05-21T08:08:01.519Z,17.8319
2023-05-21T08:09:03.170Z,17.5862
2023-05-21T08:10:04.020Z,17.4328
2023-05-21T08:11:04.388Z,17.5436
2023-05-21T08:12:05.862Z,17.8741
2023-05-21T08:13:06.777Z,17.8644
2023-05-21T08:14:07.533Z,18.2571
2023-05-21T08:15:09.638Z,18.8554
2023-05-21T08:16:10.241Z,19.5927
2023-05-21T08:23:14.100Z,19.6621
2023-05-21T08:26:19.632Z,18.9575
2023-05-21T08:27:21.527Z,19.5417
2023-05-21T08:36:28.678Z,21.0606
2023-05-21T08:37:28.408Z,20.3127
2023-05-21T08:38:30.540Z,20.1878
2023-05-21T08:39:30.077Z,20.7857
2023-05-21T08:40:30.145Z,22.0694
2023-05-21T08:41:31.167Z,22.3247
2023-05-21T08:42:37.005Z,21.7814
2023-05-21T08:43:33.759Z,21.0192
2023-05-21T08:47:46.811Z,21.2655
2023-05-21T08:54:50.289Z,20.1960
2023-05-21T08:55:51.771Z,20.2014
2023-05-21T08:56:53.571Z,20.6382
2023-05-21T09:02:21.736Z,19.8582
2023-05-21T09:04:23.517Z,20.6388
2023-05-21T09:06:24.644Z,20.3796
2023-05-21T09:07:25.056Z,21.1216
2023-05-21T09:08:26.251Z,21.9326
2023-05-21T09:09:28.360Z,22.1122
2023-05-21T09:11:29.058Z,22.3110
2023-05-21T09:17:30.559Z,22.2581
2023-05-21T09:18:31.636Z,22.2926
2023-05-21T09:19:32.226Z,23.0025
2023-05-21T09:20:32.119Z,22.9989
2023-05-21T09:21:32.986Z,23.5489
2023-05-21T09:22:34.078Z,23.2296
2023-05-21T09:23:34.925Z,22.8804
2023-05-21T09:26:34.692Z,22.4528
2023-05-21T09:30:30.058Z,21.8730
2023-05-21T09:32:13.485Z,21.6183
2023-05-21T09:33:13.602Z,22.1556
2023-05-21T09:34:14.300Z,22.5568
2023-05-21T09:35:15.098Z,22.9494
2023-05-21T09:36:15.395Z,22.6717
2023-05-21T09:37:26.551Z,22.2707
2023-05-21T09:38:18.083Z,22.4810
2023-05-21T09:39:18.173Z,23.0872
2023-05-21T09:41:22.324Z,23.8624
2023-05-21T09:46:24.967Z,22.0112
2023-05-21T09:47:25.753Z,22.3620
2023-05-21T09:48:25.606Z,22.6141
2023-05-21T09:49:26.335Z,21.9416
2023-05-21T09:56:37.770Z,22.6971
2023-05-21T09:57:38.198Z,22.3439
2023-05-21T09:58:39.928Z,22.0572
2023-05-21T09:59:40.926Z,21.5486
2023-05-21T10:01:40.977Z,21.1902
2023-05-21T10:02:42.252Z,21.4808
2023-05-21T10:03:42.436Z,22.1806
2023-05-21T10:04:42.756Z,21.9048
2023-05-21T10:05:43.582Z,22.2071
2023-05-21T10:06:44.795Z,22.4917
2023-05-21T10:07:46.474Z,23.7015
2023-05-21T10:08:47.151Z,23.2537
2023-05-21T10:09:48.014Z,22.6084
2023-05-21T10:14:52.152Z,23.1995
2023-05-21T10:17:54.644Z,22.3767
2023-05-21T10:18:54.869Z,22.8983
2023-05-21T10:19:56.190Z,22.9838
2023-05-21T10:20:57.398Z,22.9276
2023-05-21T10:21:57.013Z,22.6899
2023-05-21T10:22:57.963Z,22.9082
2023-05-21T10:28:01.176Z,23.1460
2023-05-21T10:29:01.662Z,23.3839
2023-05-21T10:31:14.057Z,22.6258
2023-05-21T10:32:15.167Z,23.2167
2023-05-21T10:33:16.614Z,23.9212
2023-05-21T10:34:16.818Z,23.8763
2023-05-21T10:35:17.898Z,23.2779
2023-05-21T10:36:18.655Z,23.1648
2023-05-21T10:37:19.545Z,23.1580
2023-05-21T10:38:20.633Z,23.6520
2023-05-21T10:40:27.303Z,24.2020
2023-05-21T10:42:33.256Z,24.0217
2023-05-21T10:43:33.876Z,24.7855
2023-05-21T10:44:35.338Z,24.9060
2023-05-21T10:45:36.209Z,24.5891
2023-05-21T11:00:22.499Z,22.7584
2023-05-21T11:01:22.707Z,22.7555
2023-05-21T11:02:22.873Z,22.6977
2023-05-21T11:03:24.573Z,22.5677
2023-05-21T11:04:24.697Z,23.4075
2023-05-21T11:05:32.736Z,23.8058
2023-05-21T11:06:27.647Z,23.4105
2023-05-21T11:15:52.769Z,23.3592
2023-05-21T11:17:53.848Z,23.3527
2023-05-21T11:18:54.668Z,23.0517
2023-05-21T11:21:57.541Z,23.0281
2023-05-21T11:22:58.546Z,23.8305
2023-05-21T11:24:58.650Z,23.8013
2023-05-21T11:25:59.778Z,23.5441
2023-05-21T11:28:01.231Z,24.2809
2023-05-21T11:29:02.596Z,24.2402
2023-05-21T11:30:03.258Z,23.7244
2023-05-21T11:31:04.027Z,23.9814
2023-05-21T11:32:04.956Z,24.3089
2023-05-21T11:33:05.998Z,23.8714
2023-05-21T11:34:06.850Z,24.0421
2023-05-21T11:35:07.607Z,24.1842
2023-05-21T11:41:13.279Z,25.1516
2023-05-21T11:42:13.677Z,25.6176
2023-05-21T11:43:14.329Z,25.6183
2023-05-21T11:44:14.660Z,25.8532
2023-05-21T11:45:15.521Z,26.0383
2023-05-21T11:46:16.053Z,26.5654
2023-05-21T11:47:17.768Z,25.9526
2023-05-21T11:48:17.918Z,25.9987
2023-05-21T11:50:18.959Z,25.9471
2023-05-21T11:51:19.065Z,25.2449
2023-05-21T11:52:19.599Z,25.1287
2023-05-21T11:53:20.934Z,24.7723
2023-05-21T11:54:21.019Z,25.2051
2023-05-21T11:55:21.625Z,25.3782
2023-05-21T11:56:21.992Z,25.1920
2023-05-21T11:57:22.220Z,26.2686
2023-05-21T11:58:23.549Z,25.8259
2023-05-21T12:01:24.548Z,26.1107
2023-05-21T12:04:27.922Z,25.9297
2023-05-21T12:05:28.313Z,25.7050
2023-05-21T12:10:30.323Z,26.9947
2023-05-21T12:11:30.492Z,27.9683
2023-05-21T12:12:38.877Z,27.8330
2023-05-21T12:13:32.268Z,26.8225
2023-05-21T12:14:32.081Z,25.4256
2023-05-21T12:15:32.655Z,25.9397
2023-05-21T12:16:33.805Z,25.1802
2023-05-21T12:17:34.986Z,25.4612
2023-05-21T12:19:35.888Z,24.7234
2023-05-21T12:20:37.268Z,25.7083
2023-05-21T12:21:37.615Z,26.1587
2023-05-21T12:23:39.611Z,26.0067
2023-05-21T12:24:40.813Z,26.1653
2023-05-21T12:28:43.417Z,26.1597
2023-05-21T12:29:44.498Z,25.8832
2023-05-21T12:32:45.615Z,27.0045
2023-05-21T12:33:45.702Z,26.6731
2023-05-21T12:34:45.874Z,26.4291
2023-05-21T12:35:47.841Z,27.2428
2023-05-21T12:38:49.706Z,26.4969
2023-05-21T12:39:50.718Z,25.8182
2023-05-21T12:40:51.394Z,25.3953
2023-05-21T12:41:51.205Z,25.1910
2023-05-21T12:47:54.193Z,25.7745
2023-05-21T12:48:54.988Z,25.3749
2023-05-21T12:50:06.619Z,24.4602
2023-05-21T12:51:00.498Z,24.7291
2023-05-21T12:52:02.914Z,24.8458
2023-05-21T12:54:04.884Z,25.7887
2023-05-21T12:55:07.528Z,25.7472
2023-05-21T12:56:06.011Z,25.6214
2023-05-21T12:57:06.795Z,25.6187
2023-05-21T12:58:06.830Z,25.7299
2023-05-21T12:59:07.521Z,25.2778
2023-05-21T13:00:08.890Z,24.8872
2023-05-21T13:01:09.908Z,25.0056
2023-05-21T13:02:10.718Z,26.0942
2023-05-21T13:13:21.473Z,25.8793
2023-05-21T13:15:20.767Z,26.1727
2023-05-21T13:16:21.680Z,25.9858
2023-05-21T13:21:23.812Z,25.5675
2023-05-21T13:22:23.797Z,24.9077
2023-05-21T13:23:24.946Z,24.8301
2023-05-21T13:26:27.042Z,24.9093
2023-05-21T13:27:27.975Z,24.9834
2023-05-21T13:29:30.070Z,24.6752
2023-05-21T13:31:31.086Z,24.9182
2023-05-21T13:32:31.879Z,25.1139
2023-05-21T13:33:33.322Z,25.0926
2023-05-21T13:35:33.653Z,25.9383
2023-05-21T13:36:34.878Z,25.8641
2023-05-21T13:38:35.413Z,25.7986
2023-05-21T13:39:35.589Z,26.5122
2023-05-21T13:40:38.864Z,27.5877
2023-05-21T13:41:38.155Z,26.7198
2023-05-21T13:50:44.838Z,25.0941
2023-05-21T13:51:45.464Z,24.8460
2023-05-21T13:52:46.982Z,24.6777
2023-05-21T13:53:48.498Z,24.9405
2023-05-21T13:54:48.644Z,24.7876
2023-05-21T13:55:49.112Z,24.8357
2023-05-21T13:56:50.037Z,24.9528
2023-05-21T13:57:51.498Z,24.5533
2023-05-21T13:58:51.871Z,24.0693
2023-05-21T13:59:52.385Z,24.3127
2023-05-21T14:03:53.727Z,24.7674
2023-05-21T14:05:57.570Z,24.9475
2023-05-21T14:06:57.822Z,24.7522
2023-05-21T14:07:57.376Z,25.0889
2023-05-21T14:08:58.394Z,26.0929
2023-05-21T14:09:58.864Z,25.9182
2023-05-21T14:12:01.666Z,26.0453
2023-05-21T14:13:18.269Z,26.1283
2023-05-21T14:14:06.056Z,27.0557
2023-05-21T14:15:07.066Z,26.3845
2023-05-21T14:16:07.298Z,25.9405
2023-05-21T14:17:09.033Z,27.0170
2023-05-21T14:18:10.908Z,27.9729
2023-05-21T14:25:14.978Z,27.3774
2023-05-21T14:26:15.996Z,27.6267
2023-05-21T14:27:17.108Z,27.1216
2023-05-21T14:28:18.312Z,26.7880
2023-05-21T14:31:19.792Z,26.3250
2023-05-21T14:32:20.184Z,26.4646
2023-05-21T14:33:22.383Z,26.0021
2023-05-21T14:34:24.089Z,26.1861
2023-05-21T14:35:25.566Z,26.6236
2023-05-21T14:37:26.579Z,26.4729
2023-05-21T14:38:27.523Z,26.5929
2023-05-21T14:43:29.770Z,26.6535
2023-05-21T14:45:31.020Z,27.3535
2023-05-21T14:46:32.468Z,26.8647
2023-05-21T14:54:37.179Z,24.2028
2023-05-21T14:55:39.084Z,24.3566
2023-05-21T14:57:39.480Z,23.3508
2023-05-21T14:58:39.610Z,23.5543
2023-05-21T14:59:40.216Z,23.7161
2023-05-21T15:00:41.262Z,23.8615
2023-05-21T15:02:40.354Z,23.6591
2023-05-21T15:03:41.169Z,23.7468
2023-05-21T15:04:42.397Z,24.1408
2023-05-21T15:05:43.181Z,24.6794
2023-05-21T15:06:43.281Z,24.6475
2023-05-21T15:09:47.360Z,23.3657
2023-05-21T15:10:48.670Z,23.9841
2023-05-21T15:11:49.053Z,24.4128
2023-05-21T15:12:49.148Z,23.6247
2023-05-21T15:13:49.523Z,24.1270
2023-05-21T15:14:50.288Z,25.0460
2023-05-21T15:15:50.339Z,24.5894
2023-05-21T15:16:50.936Z,24.7969
2023-05-21T15:19:52.121Z,26.6724
2023-05-21T15:23:52.463Z,27.5158
2023-05-21T15:24:53.366Z,27.9726
2023-05-21T15:25:53.466Z,27.4140
2023-05-21T15:26:54.262Z,27.9635
2023-05-21T15:27:54.330Z,27.1792
2023-05-21T15:42:37.745Z,28.5869
2023-05-21T15:43:38.360Z,29.4479
2023-05-21T15:44:40.164Z,29.0108
2023-05-21T15:45:41.768Z,29.0986
2023-05-21T15:48:46.330Z,28.2830
2023-05-21T15:55:32.912Z,30.1998
2023-05-21T15:57:34.045Z,28.0608
2023-05-21T15:59:46.363Z,28.7854
2023-05-21T16:00:46.874Z,28.7958
2023-05-21T16:01:48.562Z,28.6443
2023-05-21T16:02:49.516Z,28.3149
2023-05-21T16:03:50.464Z,28.0797
2023-05-21T16:04:51.420Z,28.8135
2023-05-21T16:05:51.943Z,29.0990
2023-05-21T16:06:52.726Z,29.5822
2023-05-21T16:07:53.416Z,29.9359
2023-05-21T16:08:53.452Z,29.0493
2023-05-21T16:09:54.910Z,29.2642
2023-05-21T16:10:55.372Z,29.0283
2023-05-21T16:14:59.546Z,28.2419
2023-05-21T16:16:00.835Z,28.1307
2023-05-21T16:17:01.358Z,27.8152
2023-05-21T16:20:03.204Z,26.9686
2023-05-21T16:21:05.011Z,27.4346
2023-05-21T16:22:05.389Z,27.8435
2023-05-21T16:23:05.772Z,27.6526
2023-05-21T16:24:06.071Z,27.2508
2023-05-21T16:27:06.954Z,26.5839
2023-05-21T16:33:11.605Z,24.9180
2023-05-21T16:34:12.036Z,24.9122
2023-05-21T16:35:13.474Z,25.1108
2023-05-21T16:36:16.308Z,25.3350
2023-05-21T16:37:15.740Z,24.7715
2023-05-21T16:38:16.673Z,25.4540
2023-05-21T16:39:17.229Z,25.3316
2023-05-21T16:40:18.247Z,25.4243
2023-05-21T16:41:19.750Z,25.3540
2023-05-21T16:42:20.244Z,25.0974
2023-05-21T16:43:21.346Z,25.2855
2023-05-21T16:44:22.911Z,25.6157
2023-05-21T16:45:23.386Z,25.9394
2023-05-21T16:46:24.582Z,26.7581
2023-05-21T16:48:25.367Z,25.9816
2023-05-21T16:51:27.967Z,27.2587
2023-05-21T16:52:29.350Z,26.4739
2023-05-21T16:53:30.471Z,26.7936
2023-05-21T16:59:34.275Z,26.5747
2023-05-21T17:00:34.372Z,26.2192
2023-05-21T17:01:35.447Z,25.3383
2023-05-21T17:04:36.476Z,24.5690
2023-05-21T17:05:37.260Z,24.8664
2023-05-21T17:06:39.150Z,24.9461
2023-05-21T17:07:40.001Z,24.7663
2023-05-21T17:08:40.288Z,24.9160
2023-05-21T17:09:41.285Z,24.4644
2023-05-21T17:10:43.051Z,23.8760
2023-05-21T17:11:44.170Z,23.4956
2023-05-21T17:13:45.415Z,23.0519
2023-05-21T17:14:45.670Z,22.9759
2023-05-21T17:16:45.993Z,22.3827
2023-05-21T17:17:47.112Z,22.5392
2023-05-21T17:18:47.691Z,22.2595
2023-05-21T17:19:48.103Z,22.2826
2023-05-21T17:20:48.622Z,22.2019
2023-05-21T17:21:48.916Z,22.2705
2023-05-21T17:22:49.780Z,22.4274
2023-05-21T17:23:50.368Z,22.4372
2023-05-21T17:24:50.878Z,22.5434
2023-05-21T17:25:51.105Z,22.4234
2023-05-21T17:26:51.958Z,22.5553
2023-05-21T17:27:52.646Z,22.7928
2023-05-21T17:28:53.172Z,22.4167
2023-05-21T17:29:54.164Z,22.4497
2023-05-21T17:30:55.786Z,22.1673
2023-05-21T17:31:56.928Z,22.3533
2023-05-21T17:32:57.719Z,22.4359
2023-05-21T17:33:59.152Z,22.1452
2023-05-21T17:36:00.417Z,21.8660
2023-05-21T17:37:00.844Z,21.6969
2023-05-21T17:38:01.513Z,21.3803
2023-05-21T17:39:01.693Z,21.4817
2023-05-21T17:40:03.152Z,21.0781
2023-05-21T17:46:07.538Z,20.3162
2023-05-21T17:47:08.925Z,20.1294
2023-05-21T17:48:09.048Z,20.1063
2023-05-21T17:49:09.876Z,19.9765
2023-05-21T17:50:11.098Z,19.7615
2023-05-21T17:51:11.372Z,19.7185
2023-05-21T17:52:11.409Z,19.5239
2023-05-21T17:53:12.515Z,19.4216
2023-05-21T17:54:13.751Z,19.3660
2023-05-21T17:55:14.924Z,19.1489
2023-05-21T17:56:15.949Z,19.1162
2023-05-21T17:59:16.257Z,18.6170
2023-05-21T18:00:17.121Z,18.5566
2023-05-21T18:01:17.115Z,18.5042
2023-05-21T18:02:19.441Z,18.5179
2023-05-21T18:03:20.986Z,18.3541
2023-05-21T18:04:21.281Z,18.3881
2023-05-21T18:09:22.871Z,18.0412
2023-05-21T18:10:24.316Z,17.9694
2023-05-21T18:11:24.436Z,17.8357
2023-05-21T18:13:27.392Z,17.7431
2023-05-21T18:18:29.007Z,17.6168
2023-05-21T18:19:30.876Z,17.6443
2023-05-21T18:20:30.661Z,17.5827
2023-05-21T18:23:32.191Z,17.5270
2023-05-21T18:24:32.766Z,17.4018
2023-05-21T18:25:35.517Z,17.3611
2023-05-21T18:26:36.474Z,17.2281
2023-05-21T18:27:36.886Z,17.2474
2023-05-21T18:28:37.356Z,17.2758
2023-05-21T18:30:39.009Z,17.1492
2023-05-21T18:31:38.981Z,17.1092
2023-05-21T18:35:40.680Z,17.2285
2023-05-21T18:36:41.596Z,17.3879
2023-05-21T18:37:42.506Z,17.3124
2023-05-21T18:40:44.816Z,17.1361
2023-05-21T18:41:45.416Z,17.1174
2023-05-21T18:43:47.363Z,16.8813
2023-05-21T18:44:48.415Z,16.7907
2023-05-21T18:45:49.298Z,16.6539
2023-05-21T18:46:49.824Z,16.9865
2023-05-21T18:47:51.080Z,17.0289
2023-05-21T18:48:51.642Z,17.0359
2023-05-21T18:50:52.876Z,16.9674
2023-05-21T18:51:53.113Z,17.1790
2023-05-21T18:52:55.027Z,17.0073
2023-05-21T18:53:56.028Z,16.9202
2023-05-21T18:54:56.312Z,16.9734
2023-05-21T18:55:56.455Z,16.8830
2023-05-21T19:05:02.698Z,17.1265
2023-05-21T19:06:03.664Z,17.1931
2023-05-21T19:07:03.842Z,17.1171
2023-05-21T19:08:05.470Z,17.2314
2023-05-21T19:09:06.424Z,17.6951
2023-05-21T19:11:07.527Z,17.3980
2023-05-21T19:12:08.130Z,17.5399
2023-05-21T19:13:08.414Z,17.5836
2023-05-21T19:14:09.616Z,17.3640
2023-05-21T19:15:11.408Z,17.4202
2023-05-21T19:17:11.549Z,17.5936
2023-05-21T19:18:12.108Z,17.5539
2023-05-21T19:19:12.739Z,17.5541
2023-05-21T19:20:13.810Z,17.3782
2023-05-21T19:21:14.924Z,17.3710
2023-05-21T19:22:15.510Z,17.3224
2023-05-21T19:23:15.734Z,17.1846
2023-05-21T19:24:16.018Z,17.1204
2023-05-21T19:25:16.302Z,17.0395
2023-05-21T19:26:16.998Z,16.9534
2023-05-21T19:27:18.272Z,16.9899
2023-05-21T19:30:19.225Z,17.3478
2023-05-21T19:31:19.362Z,17.1286
2023-05-21T19:32:20.695Z,17.0955
2023-05-21T19:37:23.178Z,17.1683
2023-05-21T19:40:25.456Z,17.4654
2023-05-21T19:41:25.857Z,17.2787
2023-05-21T19:42:26.944Z,17.2595
2023-05-21T19:43:28.442Z,16.8319
2023-05-21T19:44:28.484Z,16.8240
2023-05-21T19:45:29.365Z,16.7891
2023-05-21T19:46:30.038Z,16.8006
2023-05-21T19:56:34.296Z,16.3921
2023-05-21T19:57:34.578Z,16.3512
2023-05-21T20:02:38.714Z,16.7737
2023-05-21T20:03:39.116Z,16.7418
2023-05-21T20:08:41.991Z,16.5263
2023-05-21T20:09:42.813Z,16.3546
2023-05-21T20:11:44.327Z,16.0702
2023-05-21T20:12:44.439Z,16.0637
2023-05-21T20:13:45.949Z,16.0399
2023-05-21T20:14:47.010Z,16.0367
2023-05-21T20:15:47.368Z,16.0767
2023-05-21T20:16:49.184Z,15.9349
2023-05-21T20:17:50.046Z,15.9035
2023-05-21T20:18:50.934Z,16.0564
2023-05-21T20:19:52.388Z,15.8615
2023-05-21T20:20:52.738Z,15.7937
2023-05-21T20:21:52.854Z,15.8193
2023-05-21T20:33:00.262Z,15.7235
2023-05-21T20:34:01.501Z,15.6340
2023-05-21T20:35:05.627Z,15.5697